Time;durP1;ratioP1;P1;durP2;ratioP2;P2;SDS_P1;SDS_P2;PMS_P1;PMS_P2;Temp;Humidity;BMP_temperature;BMP_pressure;BME280_temperature;BME280_humidity;BME280_pressure;Samples;Min_cycle;Max_cycle;Signal;HPM_P1;HPM_P2
2021/03/09 00:00:49;;;;;;;6.20;3.55;;;;;;;;;;5074037;28;20132;-50
2021/03/09 00:03:15;;;;;;;11.55;3.88;;;;;;;;;;5073858;28;20078;-50
2021/03/09 00:05:41;;;;;;;9.52;4.00;;;;;;;;;;5071223;28;20071;-50
2021/03/09 00:08:07;;;;;;;7.57;3.97;;;;;;;;;;5063611;28;20064;-50
2021/03/09 00:10:33;;;;;;;8.75;3.60;;;;;;;;;;5073582;28;20009;-50
2021/03/09 00:12:59;;;;;;;6.70;3.42;;;;;;;;;;5073494;28;20020;-50
2021/03/09 00:15:25;;;;;;;7.10;3.72;;;;;;;;;;5071810;28;20032;-50
2021/03/09 00:17:51;;;;;;;8.05;3.97;;;;;;;;;;5072687;28;20442;-50
2021/03/09 00:20:17;;;;;;;14.45;4.35;;;;;;;;;;5070925;28;20033;-50
2021/03/09 00:22:43;;;;;;;9.25;4.50;;;;;;;;;;5052885;28;20287;-50
2021/03/09 00:25:09;;;;;;;7.85;4.57;;;;;;;;;;5054781;28;20020;-50
2021/03/09 00:27:35;;;;;;;8.73;4.75;;;;;;;;;;5054209;28;20032;-50
2021/03/09 00:30:01;;;;;;;11.27;3.78;;;;;;;;;;5053402;28;20025;-50
2021/03/09 00:32:27;;;;;;;8.45;4.13;;;;;;;;;;5053275;28;20087;-50
2021/03/09 00:34:53;;;;;;;9.65;4.57;;;;;;;;;;5053135;28;20033;-50
2021/03/09 00:37:19;;;;;;;7.38;4.07;;;;;;;;;;5071391;28;20359;-50
2021/03/09 00:39:45;;;;;;;9.85;4.28;;;;;;;;;;5054104;28;20028;-50
2021/03/09 00:42:11;;;;;;;13.30;4.70;;;;;;;;;;5053140;28;20358;-50
2021/03/09 00:44:37;;;;;;;8.15;3.95;;;;;;;;;;5053152;28;20458;-50
2021/03/09 00:47:04;;;;;;;8.50;3.97;;;;;;;;;;5063742;28;20412;-50
2021/03/09 00:49:30;;;;;;;7.22;3.80;;;;;;;;;;5072625;28;20020;-50
2021/03/09 00:51:56;;;;;;;9.43;3.22;;;;;;;;;;5072773;28;20021;-50
2021/03/09 00:54:22;;;;;;;9.07;4.00;;;;;;;;;;5073079;28;20374;-50
2021/03/09 00:56:48;;;;;;;11.07;4.18;;;;;;;;;;5071374;28;20411;-50
2021/03/09 00:59:14;;;;;;;8.88;3.78;;;;;;;;;;5079253;28;20123;-50
2021/03/09 01:01:40;;;;;;;6.30;4.00;;;;;;;;;;5079606;28;20021;-50
2021/03/09 01:04:06;;;;;;;6.90;3.42;;;;;;;;;;5079753;28;20086;-50
2021/03/09 01:06:32;;;;;;;13.35;4.32;;;;;;;;;;5079230;28;20048;-50
2021/03/09 01:08:58;;;;;;;9.85;3.63;;;;;;;;;;5063055;28;20403;-50
2021/03/09 01:11:24;;;;;;;8.98;4.07;;;;;;;;;;5059620;28;20111;-50
2021/03/09 01:13:50;;;;;;;11.07;4.20;;;;;;;;;;5079650;28;20120;-50
2021/03/09 01:16:16;;;;;;;8.32;4.25;;;;;;;;;;5079336;28;20115;-50
2021/03/09 01:18:42;;;;;;;6.55;3.78;;;;;;;;;;5077637;28;20035;-50
2021/03/09 01:21:08;;;;;;;8.50;4.10;;;;;;;;;;5079717;28;20028;-50
2021/03/09 01:23:34;;;;;;;7.60;3.55;;;;;;;;;;5079349;28;20028;-50
2021/03/09 01:26:00;;;;;;;8.10;3.75;;;;;;;;;;5079404;28;20353;-50
2021/03/09 01:28:26;;;;;;;9.57;4.00;;;;;;;;;;5077741;28;20111;-50
2021/03/09 01:30:52;;;;;;;7.28;4.00;;;;;;;;;;5079320;28;20067;-50
2021/03/09 01:33:18;;;;;;;10.30;4.45;;;;;;;;;;5070243;28;20033;-50
2021/03/09 01:35:44;;;;;;;7.03;3.83;;;;;;;;;;5059159;28;20480;-50
2021/03/09 01:38:10;;;;;;;10.20;4.88;;;;;;;;;;5058998;28;20405;-50
2021/03/09 01:40:36;;;;;;;12.55;4.60;;;;;;;;;;5060617;28;20275;-50
2021/03/09 01:43:03;;;;;;;9.52;4.35;;;;;;;;;;5059201;28;20029;-50
2021/03/09 01:45:29;;;;;;;16.20;4.13;;;;;;;;;;5059284;28;20378;-50
2021/03/09 01:47:59;;;;;;;8.75;4.00;;;;;;;;;;5058836;28;20021;-50
2021/03/09 01:50:25;;;;;;;8.15;4.32;;;;;;;;;;5067882;28;20029;-50
2021/03/09 01:52:51;;;;;;;9.15;4.35;;;;;;;;;;5079004;28;20052;-50
2021/03/09 01:55:17;;;;;;;7.80;4.18;;;;;;;;;;5079120;28;20036;-50
2021/03/09 01:57:44;;;;;;;10.40;4.63;;;;;;;;;;5078534;28;20074;-50
2021/03/09 02:00:11;;;;;;;7.63;4.20;;;;;;;;;;5077524;28;20381;-50
2021/03/09 02:02:37;;;;;;;14.45;4.53;;;;;;;;;;5079211;28;20107;-50
2021/03/09 02:05:07;;;;;;;9.68;4.75;;;;;;;;;;5079293;28;20020;-50
2021/03/09 02:07:33;;;;;;;;;;;;;;;;;;5079418;28;20070;-50
2021/03/09 02:09:59;;;;;;;10.95;4.18;;;;;;;;;;5075906;28;19904;-50
2021/03/09 02:12:45;;;;;;;7.30;3.88;;;;;;;;;;5059301;28;20029;-50
2021/03/09 02:15:38;;;;;;;10.00;4.22;;;;;;;;;;5055672;28;20454;-50
2021/03/09 02:18:08;;;;;;;11.52;4.30;;;;;;;;;;5061934;28;20032;-50
2021/03/09 02:20:43;;;;;;;11.40;4.85;;;;;;;;;;5075908;28;20036;-50
2021/03/09 02:23:15;;;;;;;7.75;4.05;;;;;;;;;;5073686;28;20036;-50
2021/03/09 02:26:00;;;;;;;9.45;4.32;;;;;;;;;;5075546;28;20021;-50
2021/03/09 02:28:26;;;;;;;9.75;4.22;;;;;;;;;;5075319;28;20029;-50
2021/03/09 02:30:52;;;;;;;11.13;4.55;;;;;;;;;;5075816;28;20098;-50
2021/03/09 02:33:25;;;;;;;9.68;4.57;;;;;;;;;;5073699;28;20234;-50
2021/03/09 02:36:00;;;;;;;12.57;4.80;;;;;;;;;;5075337;28;20071;-50
2021/03/09 02:38:28;;;;;;;14.82;5.28;;;;;;;;;;5075265;28;20021;-50
2021/03/09 02:40:57;;;;;;;10.27;4.65;;;;;;;;;;5075154;28;20021;-50
2021/03/09 02:43:24;;;;;;;8.55;4.65;;;;;;;;;;5061197;28;20477;-50
2021/03/09 02:45:51;;;;;;;12.60;4.85;;;;;;;;;;5075143;28;20560;-50
2021/03/09 02:48:20;;;;;;;11.65;4.70;;;;;;;;;;5074806;28;20048;-50
2021/03/09 02:50:47;;;;;;;8.23;4.47;;;;;;;;;;5075162;28;20037;-50
2021/03/09 02:53:14;;;;;;;13.52;4.72;;;;;;;;;;5073498;28;20060;-50
2021/03/09 02:55:42;;;;;;;10.20;4.88;;;;;;;;;;5055065;28;20063;-50
2021/03/09 02:58:09;;;;;;;10.05;4.97;;;;;;;;;;5054698;28;20037;-50
2021/03/09 03:00:37;;;;;;;10.50;5.78;;;;;;;;;;5055969;28;20040;-50
2021/03/09 03:03:06;;;;;;;10.15;4.55;;;;;;;;;;5054533;28;20025;-50
2021/03/09 03:05:32;;;;;;;11.07;5.30;;;;;;;;;;5056074;28;20021;-50
2021/03/09 03:07:58;;;;;;;11.50;4.10;;;;;;;;;;5054725;28;20048;-50
2021/03/09 03:10:26;;;;;;;10.18;4.20;;;;;;;;;;5055057;28;20067;-50
2021/03/09 03:12:52;;;;;;;8.65;4.45;;;;;;;;;;5054787;28;20124;-50
2021/03/09 03:15:20;;;;;;;11.18;5.05;;;;;;;;;;5055799;28;20108;-50
2021/03/09 03:17:47;;;;;;;10.02;5.05;;;;;;;;;;5054478;28;20324;-50
2021/03/09 03:20:14;;;;;;;13.25;5.10;;;;;;;;;;5054617;28;20108;-50
2021/03/09 03:22:41;;;;;;;13.07;4.35;;;;;;;;;;5054664;28;20441;-50
2021/03/09 03:25:08;;;;;;;17.17;4.80;;;;;;;;;;5054720;28;20025;-50
2021/03/09 03:27:35;;;;;;;14.18;5.80;;;;;;;;;;5054793;28;20064;-50
2021/03/09 03:30:01;;;;;;;9.60;4.70;;;;;;;;;;5054232;28;20032;-50
2021/03/09 03:32:27;;;;;;;12.48;5.93;;;;;;;;;;5054666;28;20423;-50
2021/03/09 03:34:53;;;;;;;9.82;5.28;;;;;;;;;;5054565;28;20119;-50
2021/03/09 03:37:20;;;;;;;11.38;5.38;;;;;;;;;;5050821;28;20420;-51
2021/03/09 03:39:46;;;;;;;8.05;5.18;;;;;;;;;;5061043;28;20040;-50
2021/03/09 03:42:12;;;;;;;11.40;5.43;;;;;;;;;;5074237;28;20032;-50
2021/03/09 03:44:38;;;;;;;11.18;5.55;;;;;;;;;;5073920;28;20331;-50
2021/03/09 03:47:04;;;;;;;10.35;5.38;;;;;;;;;;5072156;28;20021;-50
2021/03/09 03:49:30;;;;;;;9.07;4.72;;;;;;;;;;5074335;28;20454;-50
2021/03/09 03:52:02;;;;;;;9.60;5.38;;;;;;;;;;5073809;28;20025;-50
2021/03/09 03:54:36;;;;;;;12.07;5.47;;;;;;;;;;5073684;28;20353;-50
2021/03/09 03:57:05;;;;;;;12.50;5.53;;;;;;;;;;5073845;28;20021;-50
2021/03/09 03:59:33;;;;;;;15.77;5.28;;;;;;;;;;5072446;28;20029;-50
2021/03/09 04:02:04;;;;;;;9.38;5.38;;;;;;;;;;5073415;28;20362;-50
2021/03/09 04:04:31;;;;;;;13.43;5.28;;;;;;;;;;5073562;28;20099;-50
2021/03/09 04:06:57;;;;;;;11.52;5.85;;;;;;;;;;5072723;28;20017;-50
2021/03/09 04:09:24;;;;;;;14.85;6.38;;;;;;;;;;5054718;28;20104;-50
2021/03/09 04:11:52;;;;;;;13.65;5.30;;;;;;;;;;5053748;28;20021;-50
2021/03/09 04:14:18;;;;;;;12.57;6.10;;;;;;;;;;5053649;28;20267;-50
2021/03/09 04:16:45;;;;;;;12.82;5.63;;;;;;;;;;5054488;28;20028;-50
2021/03/09 04:19:13;;;;;;;11.45;5.93;;;;;;;;;;5069725;28;20024;-50
2021/03/09 04:21:40;;;;;;;11.98;5.68;;;;;;;;;;5073626;28;20036;-50
2021/03/09 04:24:06;;;;;;;14.43;5.82;;;;;;;;;;5073263;28;20466;-50
2021/03/09 04:26:32;;;;;;;11.82;5.38;;;;;;;;;;5073598;28;20020;-50
2021/03/09 04:28:59;;;;;;;11.60;5.95;;;;;;;;;;5071175;28;20040;-50
2021/03/09 04:31:26;;;;;;;13.98;5.88;;;;;;;;;;5073728;28;20043;-50
2021/03/09 04:33:52;;;;;;;17.60;6.47;;;;;;;;;;5072852;28;20044;-50
2021/03/09 04:36:18;;;;;;;15.45;6.60;;;;;;;;;;5061590;28;20021;-50
2021/03/09 04:38:45;;;;;;;14.10;5.90;;;;;;;;;;5054110;28;20016;-50
2021/03/09 04:41:11;;;;;;;12.48;6.82;;;;;;;;;;5053156;28;20052;-51
2021/03/09 04:43:37;;;;;;;14.95;6.25;;;;;;;;;;5053117;28;20052;-50
2021/03/09 04:46:04;;;;;;;20.52;6.82;;;;;;;;;;5052803;28;20514;-50
2021/03/09 04:48:30;;;;;;;14.68;6.18;;;;;;;;;;5053023;28;20036;-50
2021/03/09 04:51:03;;;;;;;11.88;5.85;;;;;;;;;;5054457;28;20081;-50
2021/03/09 04:53:30;;;;;;;13.20;6.28;;;;;;;;;;5052755;28;20024;-50
2021/03/09 04:55:59;;;;;;;15.98;6.35;;;;;;;;;;5053239;28;20032;-50
2021/03/09 04:58:25;;;;;;;13.57;6.53;;;;;;;;;;5052516;28;20024;-50
2021/03/09 05:00:52;;;;;;;15.05;6.18;;;;;;;;;;5053890;28;20366;-50
2021/03/09 05:03:18;;;;;;;10.43;5.97;;;;;;;;;;5055723;28;20025;-50
2021/03/09 05:05:44;;;;;;;14.30;6.60;;;;;;;;;;5072811;28;20476;-50
2021/03/09 05:08:10;;;;;;;19.00;6.57;;;;;;;;;;5072944;28;20020;-50
2021/03/09 05:10:36;;;;;;;13.93;6.10;;;;;;;;;;5069979;28;20021;-50
2021/03/09 05:13:02;;;;;;;16.67;7.13;;;;;;;;;;5052751;28;20401;-50
2021/03/09 05:15:28;;;;;;;16.45;6.55;;;;;;;;;;5052842;28;20036;-50
2021/03/09 05:17:54;;;;;;;15.73;6.75;;;;;;;;;;5052813;28;20057;-50
2021/03/09 05:20:20;;;;;;;17.10;6.18;;;;;;;;;;5052876;28;20053;-50
2021/03/09 05:22:47;;;;;;;15.00;6.53;;;;;;;;;;5053914;28;20585;-50
2021/03/09 05:25:14;;;;;;;14.70;6.30;;;;;;;;;;5052676;28;20021;-50
2021/03/09 05:27:40;;;;;;;12.85;7.05;;;;;;;;;;5052322;28;20025;-50
2021/03/09 05:30:07;;;;;;;17.20;6.47;;;;;;;;;;5052482;28;20468;-50
2021/03/09 05:32:33;;;;;;;15.05;7.13;;;;;;;;;;5065474;28;20060;-50
2021/03/09 05:34:59;;;;;;;18.08;7.00;;;;;;;;;;5072804;28;20059;-50
2021/03/09 05:37:25;;;;;;;15.00;6.80;;;;;;;;;;5072481;28;20021;-50
2021/03/09 05:39:51;;;;;;;17.13;6.50;;;;;;;;;;5072519;28;20028;-50
2021/03/09 05:42:18;;;;;;;16.35;6.93;;;;;;;;;;5070544;28;20454;-50
2021/03/09 05:44:44;;;;;;;17.85;6.90;;;;;;;;;;5073530;28;20032;-50
2021/03/09 05:47:10;;;;;;;19.20;6.78;;;;;;;;;;5075841;28;20029;-50
2021/03/09 05:49:36;;;;;;;14.32;6.22;;;;;;;;;;5076351;28;20103;-51
2021/03/09 05:52:02;;;;;;;16.52;7.47;;;;;;;;;;5066201;28;20025;-51
2021/03/09 05:54:28;;;;;;;17.67;7.15;;;;;;;;;;5064481;28;20032;-51
2021/03/09 05:56:55;;;;;;;13.70;7.10;;;;;;;;;;5066390;28;20020;-51
2021/03/09 05:59:21;;;;;;;14.13;6.60;;;;;;;;;;5055957;28;20025;-51
2021/03/09 06:01:47;;;;;;;14.43;6.88;;;;;;;;;;5057205;28;20040;-51
2021/03/09 06:04:13;;;;;;;17.73;7.97;;;;;;;;;;5057204;28;20029;-51
2021/03/09 06:06:39;;;;;;;18.30;7.25;;;;;;;;;;5056058;28;20021;-51
2021/03/09 06:09:27;;;;;;;14.35;6.93;;;;;;;;;;5055185;28;20083;-51
2021/03/09 06:12:12;;;;;;;21.27;8.95;;;;;;;;;;5055836;28;20396;-51
2021/03/09 06:14:39;;;;;;;19.67;7.50;;;;;;;;;;5065989;28;20036;-51
2021/03/09 06:17:05;;;;;;;18.83;6.95;;;;;;;;;;5075487;28;20438;-51
2021/03/09 06:19:41;;;;;;;14.18;6.88;;;;;;;;;;5075382;28;20033;-51
2021/03/09 06:22:07;;;;;;;16.92;8.75;;;;;;;;;;5075959;28;20082;-51
2021/03/09 06:24:34;;;;;;;16.75;6.97;;;;;;;;;;5073899;28;20028;-51
2021/03/09 06:27:00;;;;;;;19.48;7.78;;;;;;;;;;5055448;28;20025;-51
2021/03/09 06:29:26;;;;;;;17.75;7.35;;;;;;;;;;5069130;28;20033;-51
2021/03/09 06:31:52;;;;;;;18.30;6.88;;;;;;;;;;5075619;28;20488;-51
2021/03/09 06:34:20;;;;;;;16.52;8.43;;;;;;;;;;5075116;28;20057;-51
2021/03/09 06:37:05;;;;;;;12.25;5.55;;;;;;;;;;5073632;28;20113;-51
2021/03/09 06:39:50;;;;;;;20.20;7.07;;;;;;;;;;5062518;28;20116;-51
2021/03/09 06:42:36;;;;;;;15.95;7.47;;;;;;;;;;5055394;28;20029;-51
2021/03/09 06:45:06;;;;;;;15.57;6.53;;;;;;;;;;5055445;28;20049;-51
2021/03/09 06:47:33;;;;;;;15.98;7.82;;;;;;;;;;5056194;28;20099;-51
2021/03/09 06:50:00;;;;;;;21.17;8.35;;;;;;;;;;5055096;28;20021;-51
2021/03/09 06:52:26;;;;;;;14.93;6.60;;;;;;;;;;5073454;28;20039;-51
2021/03/09 06:54:54;;;;;;;16.13;7.40;;;;;;;;;;5074874;28;20112;-51
2021/03/09 06:57:20;;;;;;;16.85;7.75;;;;;;;;;;5073206;28;20017;-51
2021/03/09 06:59:50;;;;;;;16.92;7.00;;;;;;;;;;5075031;28;20135;-51
2021/03/09 07:02:26;;;;;;;16.70;7.72;;;;;;;;;;5068823;28;20032;-51
2021/03/09 07:05:08;;;;;;;18.88;8.05;;;;;;;;;;5057118;28;20358;-51
2021/03/09 07:07:36;;;;;;;20.27;7.90;;;;;;;;;;5055953;28;20025;-51
2021/03/09 07:10:05;;;;;;;16.92;7.95;;;;;;;;;;5054691;28;20359;-51
2021/03/09 07:12:31;;;;;;;20.33;8.20;;;;;;;;;;5055096;28;20036;-51
2021/03/09 07:14:57;;;;;;;22.80;8.40;;;;;;;;;;5054676;28;20412;-51
2021/03/09 07:17:28;;;;;;;15.88;7.22;;;;;;;;;;5055410;28;20033;-51
2021/03/09 07:19:55;;;;;;;19.00;7.60;;;;;;;;;;5058979;28;20107;-51
2021/03/09 07:22:21;;;;;;;17.00;7.35;;;;;;;;;;5067168;28;20071;-51
2021/03/09 07:24:56;;;;;;;19.27;7.93;;;;;;;;;;5074248;28;20029;-51
2021/03/09 07:27:26;;;;;;;12.80;6.63;;;;;;;;;;5074297;28;20107;-51
2021/03/09 07:29:57;;;;;;;19.67;6.90;;;;;;;;;;5056785;28;20451;-51
2021/03/09 07:32:26;;;;;;;12.27;6.70;;;;;;;;;;5070614;28;20044;-51
2021/03/09 07:34:52;;;;;;;17.17;5.97;;;;;;;;;;5074112;28;20066;-51
2021/03/09 07:37:18;;;;;;;16.40;7.13;;;;;;;;;;5069674;28;20021;-51
2021/03/09 07:39:44;;;;;;;14.27;6.25;;;;;;;;;;5054945;28;20362;-51
2021/03/09 07:42:11;;;;;;;17.30;6.72;;;;;;;;;;5059079;28;20039;-51
2021/03/09 07:44:38;;;;;;;22.77;8.40;;;;;;;;;;5080162;28;20039;-51
2021/03/09 07:47:05;;;;;;;25.83;8.20;;;;;;;;;;5063540;28;20083;-51
2021/03/09 07:49:31;;;;;;;20.95;9.20;;;;;;;;;;5054742;28;20112;-51
2021/03/09 07:52:09;;;;;;;23.25;8.75;;;;;;;;;;5066758;28;20370;-51
2021/03/09 07:54:36;;;;;;;19.50;8.80;;;;;;;;;;5064294;28;20164;-51
2021/03/09 07:57:21;;;;;;;14.75;7.63;;;;;;;;;;5064437;28;20020;-51
2021/03/09 07:59:57;;;;;;;21.73;7.30;;;;;;;;;;5064541;28;20362;-51
2021/03/09 08:02:42;;;;;;;20.20;8.43;;;;;;;;;;5063691;28;20515;-51
2021/03/09 08:05:19;;;;;;;16.55;7.25;;;;;;;;;;5069049;28;20028;-51
2021/03/09 08:07:46;;;;;;;17.15;8.20;;;;;;;;;;5062955;28;20543;-52
2021/03/09 08:10:35;;;;;;;12.38;5.95;;;;;;;;;;5066149;28;20023;-51
2021/03/09 08:13:12;;;;;;;21.27;9.07;;;;;;;;;;5070897;28;20086;-51
2021/03/09 08:15:39;;;;;;;16.77;8.23;;;;;;;;;;5069685;28;20136;-51
2021/03/09 08:18:19;;;;;;;18.50;7.05;;;;;;;;;;5062363;28;20032;-51
2021/03/09 08:20:48;;;;;;;18.67;8.00;;;;;;;;;;5063717;28;20454;-52
2021/03/09 08:23:35;;;;;;;17.67;8.68;;;;;;;;;;5064732;28;20712;-51
2021/03/09 08:26:03;;;;;;;23.63;8.88;;;;;;;;;;5065034;28;20175;-51
2021/03/09 08:28:42;;;;;;;20.58;8.88;;;;;;;;;;5061884;28;20113;-51
2021/03/09 08:31:17;;;;;;;18.23;6.97;;;;;;;;;;5059892;28;20096;-51
2021/03/09 08:33:43;;;;;;;17.77;6.88;;;;;;;;;;5062021;28;20347;-51
2021/03/09 08:36:24;;;;;;;17.33;7.57;;;;;;;;;;5066164;28;20523;-51
2021/03/09 08:41:29;;;;;;;23.55;8.98;;;;;;;;;;5060969;28;20021;-52
2021/03/09 08:44:13;;;;;;;22.58;8.40;;;;;;;;;;5071867;28;20028;-51
2021/03/09 08:46:56;;;;;;;19.10;7.13;;;;;;;;;;5072016;28;20409;-52
2021/03/09 08:49:37;;;;;;;22.88;8.93;;;;;;;;;;5074196;28;20110;-52
2021/03/09 08:52:18;;;;;;;19.83;6.60;;;;;;;;;;5072209;28;20033;-51
2021/03/09 08:54:49;;;;;;;18.05;8.20;;;;;;;;;;5066203;28;20033;-51
2021/03/09 08:57:24;;;;;;;19.00;8.63;;;;;;;;;;5061482;28;20020;-51
2021/03/09 08:59:52;;;;;;;13.35;7.05;;;;;;;;;;5068079;28;20354;-51
2021/03/09 09:02:19;;;;;;;22.20;8.07;;;;;;;;;;5057951;28;20416;-52
2021/03/09 09:04:47;;;;;;;19.95;8.80;;;;;;;;;;5062255;28;20021;-52
2021/03/09 09:07:19;;;;;;;20.08;7.97;;;;;;;;;;5062397;28;20033;-51
2021/03/09 09:09:45;;;;;;;20.48;8.40;;;;;;;;;;5061733;28;20175;-51
2021/03/09 09:12:30;;;;;;;21.30;8.73;;;;;;;;;;5065981;28;20036;-51
2021/03/09 09:15:05;;;;;;;21.20;8.30;;;;;;;;;;5061071;28;20143;-51
2021/03/09 09:17:31;;;;;;;24.67;9.65;;;;;;;;;;5057351;28;20029;-51
2021/03/09 09:20:01;;;;;;;18.38;8.52;;;;;;;;;;5070117;28;20029;-51
2021/03/09 09:22:28;;;;;;;20.88;8.00;;;;;;;;;;5070685;28;20525;-51
2021/03/09 09:25:11;;;;;;;22.38;9.38;;;;;;;;;;5065930;28;20043;-51
2021/03/09 09:27:45;;;;;;;20.35;9.30;;;;;;;;;;5058619;28;20021;-51
2021/03/09 09:30:22;;;;;;;19.38;8.57;;;;;;;;;;5067388;28;20036;-51
2021/03/09 09:32:53;;;;;;;20.77;9.15;;;;;;;;;;5065906;28;20040;-51
2021/03/09 09:35:21;;;;;;;19.73;8.05;;;;;;;;;;5065546;28;20040;-51
2021/03/09 09:37:51;;;;;;;22.88;9.20;;;;;;;;;;5067000;28;20032;-51
2021/03/09 09:40:18;;;;;;;22.77;9.35;;;;;;;;;;5063986;28;20505;-51
2021/03/09 09:42:52;;;;;;;26.50;9.73;;;;;;;;;;5065660;28;20029;-51
2021/03/09 09:45:18;;;;;;;21.42;10.05;;;;;;;;;;5066739;28;20339;-51
2021/03/09 09:47:44;;;;;;;23.25;8.90;;;;;;;;;;5064079;28;20025;-51
2021/03/09 09:50:10;;;;;;;20.52;8.98;;;;;;;;;;5062462;28;20382;-51
2021/03/09 09:52:36;;;;;;;21.98;8.05;;;;;;;;;;5070377;28;20044;-51
2021/03/09 09:55:03;;;;;;;17.48;8.15;;;;;;;;;;5055923;28;20467;-51
2021/03/09 09:57:29;;;;;;;17.63;8.10;;;;;;;;;;5068600;28;20031;-51
2021/03/09 09:59:55;;;;;;;21.30;8.52;;;;;;;;;;5075908;28;20020;-51
2021/03/09 10:02:22;;;;;;;15.60;7.72;;;;;;;;;;5075543;28;20335;-51
2021/03/09 10:04:49;;;;;;;21.65;8.48;;;;;;;;;;5075943;28;20021;-51
2021/03/09 10:07:16;;;;;;;18.13;8.02;;;;;;;;;;5068938;28;20476;-51
2021/03/09 10:09:59;;;;;;;16.13;6.07;;;;;;;;;;5055906;28;20359;-51
2021/03/09 10:12:31;;;;;;;18.63;9.40;;;;;;;;;;5064976;28;20351;-51
2021/03/09 10:14:57;;;;;;;19.33;7.70;;;;;;;;;;5069670;28;20041;-51
2021/03/09 10:17:23;;;;;;;18.00;8.50;;;;;;;;;;5071061;28;20070;-51
2021/03/09 10:19:51;;;;;;;24.75;9.73;;;;;;;;;;5072362;28;20024;-51
2021/03/09 10:22:21;;;;;;;13.05;5.05;;;;;;;;;;5076753;28;20016;-51
2021/03/09 10:24:48;;;;;;;17.80;7.13;;;;;;;;;;5071729;28;20091;-51
2021/03/09 10:27:24;;;;;;;20.08;7.85;;;;;;;;;;5067720;28;20074;-52
2021/03/09 10:29:55;;;;;;;17.33;7.28;;;;;;;;;;5069175;28;20028;-51
2021/03/09 10:32:21;;;;;;;28.27;10.40;;;;;;;;;;5073093;28;20098;-51
2021/03/09 10:34:49;;;;;;;18.95;8.60;;;;;;;;;;5080629;28;20037;-51
2021/03/09 10:37:16;;;;;;;13.60;6.30;;;;;;;;;;5070473;28;20214;-51
2021/03/09 10:39:55;;;;;;;19.33;7.50;;;;;;;;;;5072794;28;20116;-51
2021/03/09 10:42:28;;;;;;;16.88;4.80;;;;;;;;;;5067361;28;20082;-51
2021/03/09 10:44:54;;;;;;;16.35;7.15;;;;;;;;;;5079694;28;20021;-51
2021/03/09 10:47:20;;;;;;;18.73;7.93;;;;;;;;;;5089194;28;20024;-51
2021/03/09 10:49:46;;;;;;;8.60;2.72;;;;;;;;;;5074395;28;20071;-52
2021/03/09 10:52:13;;;;;;;8.50;2.97;;;;;;;;;;5078678;28;20028;-52
2021/03/09 10:54:39;;;;;;;16.20;6.10;;;;;;;;;;5063653;28;20040;-52
2021/03/09 10:57:06;;;;;;;14.93;6.75;;;;;;;;;;5067232;28;20031;-51
2021/03/09 10:59:32;;;;;;;7.85;3.67;;;;;;;;;;5067422;28;20039;-51
2021/03/09 11:01:58;;;;;;;11.55;5.90;;;;;;;;;;5063768;28;20067;-51
2021/03/09 11:04:24;;;;;;;14.07;5.45;;;;;;;;;;5063819;28;20454;-51
2021/03/09 11:06:50;;;;;;;14.10;6.70;;;;;;;;;;5067431;28;20029;-51
2021/03/09 11:09:16;;;;;;;10.77;4.53;;;;;;;;;;5065453;28;20025;-52
2021/03/09 11:11:42;;;;;;;13.13;6.22;;;;;;;;;;5065126;28;20025;-51
2021/03/09 11:14:08;;;;;;;10.20;4.85;;;;;;;;;;5066275;28;20474;-51
2021/03/09 11:16:34;;;;;;;12.30;5.15;;;;;;;;;;5082685;28;20032;-52
2021/03/09 11:19:00;;;;;;;14.77;5.53;;;;;;;;;;5073361;28;20350;-51
2021/03/09 11:21:27;;;;;;;12.68;6.47;;;;;;;;;;5064105;28;20021;-51
2021/03/09 11:23:54;;;;;;;9.13;3.10;;;;;;;;;;5064130;28;20357;-51
2021/03/09 11:26:23;;;;;;;12.55;4.45;;;;;;;;;;5075286;28;20111;-51
2021/03/09 11:28:50;;;;;;;6.47;3.77;;;;;;;;;;5083983;28;20028;-51
2021/03/09 11:31:16;;;;;;;7.35;3.25;;;;;;;;;;5071298;28;20446;-51
2021/03/09 11:33:42;;;;;;;12.77;7.13;;;;;;;;;;5082269;28;20080;-51
2021/03/09 11:36:11;;;;;;;13.93;5.18;;;;;;;;;;5088363;28;20329;-51
2021/03/09 11:38:37;;;;;;;6.95;3.67;;;;;;;;;;5065866;28;20036;-51
2021/03/09 11:41:03;;;;;;;6.20;3.25;;;;;;;;;;5080982;28;20047;-51
2021/03/09 11:43:29;;;;;;;15.00;7.32;;;;;;;;;;5061783;28;20079;-51
2021/03/09 11:45:55;;;;;;;8.20;3.92;;;;;;;;;;5089967;28;20017;-52
2021/03/09 11:48:21;;;;;;;12.82;5.72;;;;;;;;;;5078677;28;20020;-52
2021/03/09 11:50:47;;;;;;;11.23;4.32;;;;;;;;;;5076633;28;20032;-51
2021/03/09 11:53:13;;;;;;;10.27;5.22;;;;;;;;;;5067297;28;20403;-52
2021/03/09 11:55:39;;;;;;;7.72;4.13;;;;;;;;;;5089003;28;20032;-51
2021/03/09 11:58:05;;;;;;;13.32;6.85;;;;;;;;;;5079114;28;20150;-51
2021/03/09 12:00:31;;;;;;;11.07;6.20;;;;;;;;;;5082815;28;20478;-51
2021/03/09 12:02:57;;;;;;;16.02;7.63;;;;;;;;;;5076722;28;20019;-51
2021/03/09 12:05:23;;;;;;;16.08;7.15;;;;;;;;;;5067457;28;20033;-51
2021/03/09 12:07:49;;;;;;;8.50;4.20;;;;;;;;;;5089880;28;20027;-51
2021/03/09 12:10:15;;;;;;;20.60;6.63;;;;;;;;;;5069031;28;20351;-52
2021/03/09 12:12:42;;;;;;;14.77;6.00;;;;;;;;;;5074510;28;20028;-51
2021/03/09 12:15:09;;;;;;;15.80;7.57;;;;;;;;;;5069468;28;20044;-51
2021/03/09 12:17:35;;;;;;;11.77;4.82;;;;;;;;;;5089976;28;20107;-51
2021/03/09 12:20:01;;;;;;;7.18;3.95;;;;;;;;;;5075705;28;20486;-51
2021/03/09 12:22:27;;;;;;;11.10;5.55;;;;;;;;;;5070478;28;20016;-51
2021/03/09 12:24:53;;;;;;;15.45;5.88;;;;;;;;;;5081350;28;20031;-51
2021/03/09 12:27:19;;;;;;;11.90;5.60;;;;;;;;;;5086588;28;20024;-51
2021/03/09 12:29:45;;;;;;;11.32;4.70;;;;;;;;;;5071495;28;20029;-51
2021/03/09 12:32:11;;;;;;;16.92;5.25;;;;;;;;;;5068558;28;20525;-51
2021/03/09 12:34:38;;;;;;;10.30;5.28;;;;;;;;;;5069446;28;20037;-51
2021/03/09 12:37:04;;;;;;;10.90;5.85;;;;;;;;;;5052817;28;20029;-51
2021/03/09 12:39:30;;;;;;;12.10;5.35;;;;;;;;;;5071894;28;20025;-52
2021/03/09 12:41:56;;;;;;;10.57;4.90;;;;;;;;;;5085929;28;20127;-51
2021/03/09 12:44:22;;;;;;;10.15;5.28;;;;;;;;;;5062612;28;20787;-51
2021/03/09 12:46:48;;;;;;;15.18;6.18;;;;;;;;;;5075789;28;20079;-51
2021/03/09 12:49:14;;;;;;;18.00;8.20;;;;;;;;;;5074233;28;20355;-51
2021/03/09 12:51:40;;;;;;;19.60;6.47;;;;;;;;;;5066747;28;20486;-52
2021/03/09 12:54:07;;;;;;;11.68;6.15;;;;;;;;;;5066202;28;20048;-52
2021/03/09 12:56:33;;;;;;;12.63;5.88;;;;;;;;;;5064810;28;20025;-52
2021/03/09 12:58:59;;;;;;;15.05;6.43;;;;;;;;;;5064160;28;20107;-51
2021/03/09 13:01:25;;;;;;;15.48;7.25;;;;;;;;;;5063442;28;20079;-52
2021/03/09 13:03:51;;;;;;;17.67;7.50;;;;;;;;;;5079724;28;20031;-51
2021/03/09 13:06:17;;;;;;;12.68;6.38;;;;;;;;;;5078384;28;20024;-51
2021/03/09 13:08:43;;;;;;;13.38;7.00;;;;;;;;;;5077509;28;20032;-52
2021/03/09 13:11:09;;;;;;;13.15;6.18;;;;;;;;;;5068856;28;20028;-51
2021/03/09 13:13:35;;;;;;;19.23;7.78;;;;;;;;;;5077159;28;20509;-51
2021/03/09 13:16:01;;;;;;;18.33;6.35;;;;;;;;;;5087739;28;20024;-51
2021/03/09 13:18:27;;;;;;;16.85;8.88;;;;;;;;;;5080616;28;20085;-51
2021/03/09 13:20:54;;;;;;;11.77;6.63;;;;;;;;;;5076994;28;20028;-51
2021/03/09 13:23:20;;;;;;;9.48;4.40;;;;;;;;;;5074310;28;20066;-51
2021/03/09 13:25:47;;;;;;;17.65;6.43;;;;;;;;;;5064747;28;20458;-52
2021/03/09 13:28:13;;;;;;;17.67;7.75;;;;;;;;;;5064445;28;20025;-51
2021/03/09 13:30:39;;;;;;;17.05;6.90;;;;;;;;;;5063986;28;20430;-52
2021/03/09 13:33:05;;;;;;;26.55;5.90;;;;;;;;;;5063788;28;20021;-51
2021/03/09 13:35:31;;;;;;;22.23;6.22;;;;;;;;;;5070061;28;20094;-51
2021/03/09 13:37:58;;;;;;;10.90;4.68;;;;;;;;;;5073037;28;20046;-51
2021/03/09 13:40:24;;;;;;;15.05;7.63;;;;;;;;;;5069743;28;20032;-51
2021/03/09 13:42:50;;;;;;;15.45;7.20;;;;;;;;;;5069045;28;20017;-51
2021/03/09 13:45:17;;;;;;;14.38;7.32;;;;;;;;;;5062776;28;20024;-51
2021/03/09 13:47:43;;;;;;;15.93;8.20;;;;;;;;;;5063009;28;20048;-51
2021/03/09 13:50:10;;;;;;;15.98;7.20;;;;;;;;;;5063431;28;20020;-51
2021/03/09 13:52:37;;;;;;;16.77;7.30;;;;;;;;;;5064912;28;20020;-52
2021/03/09 13:55:03;;;;;;;15.25;6.80;;;;;;;;;;5069358;28;20036;-51
2021/03/09 13:57:29;;;;;;;15.30;6.75;;;;;;;;;;5065900;28;20063;-51
2021/03/09 13:59:55;;;;;;;14.98;6.40;;;;;;;;;;5065250;28;20052;-51
2021/03/09 14:02:21;;;;;;;14.45;5.47;;;;;;;;;;5069149;28;20016;-51
2021/03/09 14:04:47;;;;;;;13.38;7.13;;;;;;;;;;5063310;28;20398;-51
2021/03/09 14:07:13;;;;;;;13.10;6.93;;;;;;;;;;5064761;28;20025;-51
2021/03/09 14:09:40;;;;;;;13.30;6.65;;;;;;;;;;5086314;28;20365;-51
2021/03/09 14:12:06;;;;;;;16.08;7.40;;;;;;;;;;5089606;28;20016;-51
2021/03/09 14:14:32;;;;;;;16.33;7.10;;;;;;;;;;5085106;28;20078;-52
2021/03/09 14:16:59;;;;;;;15.65;5.50;;;;;;;;;;5075214;28;20127;-51
2021/03/09 14:19:26;;;;;;;15.68;7.78;;;;;;;;;;5090184;28;20028;-51
2021/03/09 14:21:52;;;;;;;14.23;7.13;;;;;;;;;;5063375;28;20032;-51
2021/03/09 14:24:18;;;;;;;11.15;5.97;;;;;;;;;;5085351;28;20028;-51
2021/03/09 14:26:44;;;;;;;14.18;6.82;;;;;;;;;;5067440;28;20095;-51
2021/03/09 14:29:10;;;;;;;11.73;6.45;;;;;;;;;;5071345;28;20020;-51
2021/03/09 14:31:36;;;;;;;15.63;6.43;;;;;;;;;;5067811;28;20020;-51
2021/03/09 14:34:02;;;;;;;19.65;7.05;;;;;;;;;;5059157;28;20036;-51
2021/03/09 14:36:28;;;;;;;11.95;5.88;;;;;;;;;;5064800;28;20462;-51
2021/03/09 14:38:54;;;;;;;12.15;6.03;;;;;;;;;;5069791;28;20030;-51
2021/03/09 14:41:20;;;;;;;10.95;5.50;;;;;;;;;;5061652;28;20154;-52